Time;durP1;ratioP1;P1;durP2;ratioP2;P2;SDS_P1;SDS_P2;PMS_P1;PMS_P2;Temp;Humidity;BMP_temperature;BMP_pressure;BME280_temperature;BME280_humidity;BME280_pressure;Samples;Min_cycle;Max_cycle;Signal;HPM_P1;HPM_P2
2023/01/23 00:01:39;;;;;;;17.25;10.20;;;2.70;61.50;;;-2.53;91.71;96366.72;4980779;28;20037;-49
2023/01/23 00:04:13;;;;;;;18.05;10.07;;;2.70;61.50;;;-2.51;92.17;96362.13;4961855;28;20053;-46
2023/01/23 00:06:39;;;;;;;18.15;10.00;;;2.70;61.60;;;-2.53;91.93;96358.88;4972171;28;20371;-46
2023/01/23 00:09:09;;;;;;;17.20;10.15;;;2.70;61.60;;;-2.57;92.32;96367.03;4969117;28;20485;-47
2023/01/23 00:11:35;;;;;;;16.88;10.65;;;2.70;61.60;;;-2.54;92.43;96365.06;4958890;28;20461;-46
2023/01/23 00:14:07;;;;;;;16.75;9.60;;;2.70;61.60;;;-2.54;92.50;96359.84;4973217;28;20026;-46
2023/01/23 00:16:56;;;;;;;18.63;10.50;;;2.70;61.60;;;-2.51;92.82;96356.91;4991892;28;20034;-46
2023/01/23 00:19:22;;;;;;;19.33;10.82;;;2.70;61.70;;;-2.50;92.69;96361.16;4956557;28;20020;-48
2023/01/23 00:21:48;;;;;;;18.17;10.65;;;2.80;61.80;;;-2.50;93.11;96358.56;4987701;28;20393;-46
2023/01/23 00:24:14;;;;;;;17.52;10.60;;;2.70;61.80;;;-2.52;93.25;96356.09;4967324;28;20448;-46
2023/01/23 00:26:47;;;;;;;21.55;11.25;;;2.70;61.80;;;-2.53;93.13;96353.66;4974498;28;20037;-48
2023/01/23 00:29:18;;;;;;;19.42;10.98;;;2.80;61.90;;;-2.52;93.34;96352.69;4993138;28;20029;-46
2023/01/23 00:31:50;;;;;;;19.83;10.75;;;2.80;61.90;;;-2.56;93.39;96357.41;4990248;28;20646;-46
2023/01/23 00:34:32;;;;;;;18.35;10.50;;;2.80;61.90;;;-2.56;93.48;96354.81;4972329;28;20588;-45
2023/01/23 00:37:04;;;;;;;15.10;9.98;;;2.70;61.90;;;-2.58;93.86;96351.53;4977356;28;20033;-45
2023/01/23 00:39:30;;;;;;;21.27;11.73;;;2.70;61.90;;;-2.54;93.91;96354.63;4981431;28;20096;-46
2023/01/23 00:41:59;;;;;;;18.15;10.95;;;2.70;62.00;;;-2.57;93.82;96361.81;4980919;28;20472;-46
2023/01/23 00:44:28;;;;;;;20.52;11.35;;;2.70;62.00;;;-2.56;93.48;96366.06;4984614;28;20108;-46
2023/01/23 00:46:54;;;;;;;19.20;10.85;;;2.70;62.00;;;-2.58;93.63;96357.56;4981959;28;20480;-45
2023/01/23 00:49:20;;;;;;;21.23;11.85;;;2.70;62.00;;;-2.56;93.90;96367.84;4961980;28;20025;-51
2023/01/23 00:52:00;;;;;;;22.42;11.85;;;2.70;62.10;;;-2.54;93.88;96359.84;4982791;28;20022;-45
2023/01/23 00:54:29;;;;;;;21.38;11.88;;;2.70;62.20;;;-2.53;93.70;96361.50;4985957;28;20046;-48
2023/01/23 00:56:58;;;;;;;19.23;11.50;;;2.70;62.20;;;-2.50;94.01;96358.56;4984489;28;20500;-45
2023/01/23 00:59:31;;;;;;;20.65;11.75;;;2.70;62.30;;;-2.45;94.16;96358.88;4991090;28;20026;-45
2023/01/23 01:01:57;;;;;;;20.05;11.73;;;2.70;62.30;;;-2.49;93.85;96358.38;4975523;28;20022;-46
2023/01/23 01:04:23;;;;;;;19.20;11.13;;;2.80;62.40;;;-2.47;94.32;96360.84;4954980;28;20093;-44
2023/01/23 01:06:49;;;;;;;19.02;11.18;;;2.80;62.40;;;-2.43;94.48;96357.72;4973521;28;20041;-45
2023/01/23 01:09:14;;;;;;;23.40;12.63;;;2.80;62.40;;;-2.43;94.23;96359.53;4988336;28;20176;-47
2023/01/23 01:11:40;;;;;;;19.52;11.95;;;2.80;62.40;;;-2.44;94.30;96360.53;4979437;28;20072;-45
2023/01/23 01:14:09;;;;;;;21.00;11.30;;;2.80;62.40;;;-2.46;94.27;96370.28;4985191;28;20113;-45
2023/01/23 01:16:40;;;;;;;20.55;11.85;;;2.80;62.40;;;-2.48;94.07;96370.44;4968343;28;20079;-45
2023/01/23 01:19:06;;;;;;;17.83;10.68;;;2.80;62.30;;;-2.47;93.94;96377.31;4978968;28;20388;-45
2023/01/23 01:21:34;;;;;;;20.58;12.05;;;2.80;62.30;;;-2.54;93.76;96367.69;4985132;28;20022;-45
2023/01/23 01:24:00;;;;;;;20.17;11.30;;;2.80;62.30;;;-2.60;94.00;96371.75;4962025;28;20443;-45
2023/01/23 01:26:32;;;;;;;21.27;11.85;;;2.70;62.30;;;-2.65;94.20;96374.84;4988163;28;20025;-47
2023/01/23 01:29:03;;;;;;;21.83;11.85;;;2.70;62.30;;;-2.63;93.96;96379.94;4983228;28;20080;-45
2023/01/23 01:31:32;;;;;;;21.75;11.93;;;2.70;62.30;;;-2.68;94.19;96383.00;4973050;28;20033;-45
2023/01/23 01:33:58;;;;;;;22.85;11.90;;;2.60;62.20;;;-2.71;94.21;96377.31;4990392;28;20101;-45
2023/01/23 01:36:27;;;;;;;20.65;11.38;;;2.60;62.30;;;-2.77;94.47;96380.56;4985820;28;20117;-45
2023/01/23 01:38:52;;;;;;;21.08;12.60;;;2.60;62.40;;;-2.77;94.78;96381.38;4956062;28;20022;-45
2023/01/23 01:41:24;;;;;;;21.08;11.75;;;2.60;62.40;;;-2.75;94.67;96383.81;4958603;28;20037;-46
2023/01/23 01:43:52;;;;;;;21.13;12.13;;;2.60;62.50;;;-2.74;94.98;96385.44;4973157;28;20373;-46
2023/01/23 01:46:31;;;;;;;20.90;12.20;;;2.60;62.50;;;-2.75;95.15;96387.25;4991315;28;20026;-45
2023/01/23 01:49:32;;;;;;;22.58;12.23;;;2.50;62.70;;;-2.73;95.24;96377.44;4958339;28;20022;-46
2023/01/23 01:52:10;;;;;;;21.58;12.63;;;2.50;62.70;;;-2.67;95.52;96379.41;4981918;28;20558;-45
2023/01/23 01:55:00;;;;;;;24.23;13.30;;;2.50;62.80;;;-2.71;95.82;96367.69;4958024;28;20029;-45
2023/01/23 01:57:40;;;;;;;21.85;12.52;;;2.50;62.80;;;-2.69;95.78;96354.50;4970816;28;20485;-46
2023/01/23 02:00:18;;;;;;;24.83;13.13;;;2.50;62.90;;;-2.70;95.93;96358.06;4966326;28;20029;-45
2023/01/23 02:03:03;;;;;;;23.88;12.55;;;2.60;62.90;;;-2.67;96.14;96362.94;4966794;28;20022;-47
2023/01/23 02:05:44;;;;;;;21.13;11.82;;;2.60;63.00;;;-2.70;95.72;96361.47;4997007;23;20052;-48
2023/01/23 02:08:51;;;;;;;25.05;13.38;;;2.60;63.00;;;-2.72;95.92;96371.28;5003820;28;20051;-48
2023/01/23 02:11:20;;;;;;;21.95;12.25;;;2.60;63.00;;;-2.72;96.14;96362.63;4983046;28;20018;-46
2023/01/23 02:13:46;;;;;;;24.30;13.50;;;2.50;62.90;;;-2.73;95.77;96367.00;5009935;28;20840;-47
2023/01/23 02:16:28;;;;;;;24.27;12.82;;;2.50;63.00;;;-2.72;95.83;96373.06;4976462;28;20112;-47
2023/01/23 02:19:03;;;;;;;24.40;12.77;;;2.50;63.00;;;-2.81;95.66;96370.44;4991511;28;20108;-46
2023/01/23 02:21:29;;;;;;;23.02;12.35;;;2.50;63.00;;;-2.77;95.67;96372.72;4986635;28;20021;-46
2023/01/23 02:24:32;;;;;;;24.00;12.90;;;2.50;63.00;;;-2.72;95.45;96365.25;4990887;28;20033;-45
2023/01/23 02:26:58;;;;;;;23.23;12.23;;;2.50;63.00;;;-2.81;95.04;96362.63;4997745;28;20034;-48
2023/01/23 02:29:38;;;;;;;22.42;12.70;;;2.50;62.90;;;-2.77;95.84;96364.91;5006874;28;20490;-46
2023/01/23 02:32:04;;;;;;;23.88;13.45;;;2.50;63.00;;;-2.82;95.49;96358.41;4994495;28;20479;-46
2023/01/23 02:34:34;;;;;;;23.60;13.60;;;2.50;63.00;;;-2.88;95.16;96355.63;4992824;28;20392;-46
2023/01/23 02:37:00;;;;;;;22.38;12.55;;;2.40;62.90;;;-2.83;94.87;96351.53;5010545;28;20479;-47
2023/01/23 02:39:30;;;;;;;21.50;12.40;;;2.50;63.00;;;-2.80;94.86;96360.81;4994152;28;20021;-46
2023/01/23 02:41:58;;;;;;;25.05;12.82;;;2.40;63.00;;;-2.78;94.83;96353.66;4981277;28;20022;-46
2023/01/23 02:44:30;;;;;;;23.88;12.70;;;2.50;63.10;;;-2.83;94.63;96354.13;4991049;28;20028;-46
2023/01/23 02:47:22;;;;;;;;;;;2.50;63.10;;;-2.90;94.89;96336.72;5011051;28;20036;-46
2023/01/23 02:49:50;;;;;;;22.95;12.68;;;2.50;62.90;;;-2.91;94.89;96335.09;5006763;28;19913;-46
2023/01/23 02:52:16;;;;;;;23.00;12.93;;;2.40;62.90;;;-2.97;94.65;96333.94;4992454;28;20025;-47
2023/01/23 02:54:46;;;;;;;24.42;12.60;;;2.40;62.80;;;-3.00;94.91;96336.88;4992477;28;20087;-46
2023/01/23 02:57:13;;;;;;;25.10;13.68;;;2.30;62.90;;;-3.00;95.44;96349.09;5008969;28;20040;-46
2023/01/23 03:02:32;;;;;;;24.77;13.23;;;2.30;63.00;;;-2.98;95.33;96352.34;4998271;28;20028;-46
2023/01/23 03:04:58;;;;;;;22.85;12.70;;;2.30;63.10;;;-2.99;95.07;96350.72;5009044;28;20045;-46
2023/01/23 03:07:24;;;;;;;22.40;12.95;;;2.30;63.20;;;-2.92;94.84;96357.72;5001172;28;20171;-48
2023/01/23 03:09:52;;;;;;;24.63;13.52;;;2.30;63.20;;;-2.92;94.76;96354.28;5009302;28;20025;-49
2023/01/23 03:12:18;;;;;;;25.30;13.77;;;2.30;63.30;;;-2.96;94.60;96361.63;5010214;28;20025;-46
2023/01/23 03:14:44;;;;;;;24.35;12.40;;;2.30;63.30;;;-2.89;94.98;96354.78;4991234;28;20083;-50
2023/01/23 03:17:13;;;;;;;25.85;13.98;;;2.30;63.30;;;-2.90;94.49;96362.78;4992729;28;20033;-50
2023/01/23 03:19:45;;;;;;;23.23;12.52;;;2.30;63.30;;;-2.92;94.37;96354.28;4996626;28;20024;-49
2023/01/23 03:22:17;;;;;;;24.83;13.48;;;2.30;63.30;;;-2.88;93.52;96361.66;5000177;28;20033;-46
2023/01/23 03:24:42;;;;;;;24.15;12.70;;;2.40;63.30;;;-2.87;93.77;96358.06;4989529;28;20029;-46
2023/01/23 03:27:09;;;;;;;23.70;13.80;;;2.40;63.30;;;-2.89;93.54;96352.16;4991276;28;20036;-46
2023/01/23 03:32:20;;;;;;;23.88;12.95;;;2.40;63.20;;;-2.95;93.25;96360.63;5005036;28;20095;-47
2023/01/23 03:34:49;;;;;;;25.48;13.43;;;2.40;63.10;;;-2.95;93.67;96359.81;4976238;28;20022;-47
2023/01/23 03:37:21;;;;;;;22.27;12.40;;;2.40;63.10;;;-3.02;93.28;96360.47;5009434;28;20022;-50
2023/01/23 03:42:35;;;;;;;22.63;12.98;;;2.40;63.00;;;-3.03;93.08;96364.06;4988230;28;20122;-46
2023/01/23 03:45:06;;;;;;;22.65;11.93;;;2.30;63.00;;;-3.05;92.57;96370.41;4990810;28;20025;-46
2023/01/23 03:47:32;;;;;;;24.55;12.57;;;2.30;62.90;;;-3.15;92.93;96362.75;5009803;28;20063;-48
2023/01/23 03:49:58;;;;;;;24.23;13.75;;;2.30;62.90;;;-3.20;92.82;96367.59;4994782;28;20025;-48
2023/01/23 03:52:24;;;;;;;21.55;12.48;;;2.20;62.80;;;-3.21;92.47;96362.56;5008382;28;20068;-47
2023/01/23 03:54:51;;;;;;;22.67;12.18;;;2.20;62.80;;;-3.32;92.60;96364.50;4987050;28;20454;-49
2023/01/23 03:57:22;;;;;;;21.67;11.82;;;2.10;62.70;;;-3.31;92.41;96362.69;4990480;28;20383;-47
2023/01/23 03:59:57;;;;;;;21.95;11.25;;;2.10;62.70;;;-3.37;92.88;96368.53;4995606;28;20604;-48
2023/01/23 04:02:26;;;;;;;21.40;11.68;;;2.00;62.70;;;-3.40;92.52;96361.84;5004779;28;20021;-53
2023/01/23 04:04:52;;;;;;;20.52;11.20;;;2.00;62.80;;;-3.35;92.79;96364.81;5010947;28;20041;-48
2023/01/23 04:07:18;;;;;;;21.30;11.77;;;1.90;62.80;;;-3.30;92.39;96367.75;4994442;28;20055;-46
2023/01/23 04:09:44;;;;;;;22.52;11.25;;;1.90;62.90;;;-3.30;92.82;96367.75;5010478;28;20087;-47
2023/01/23 04:12:18;;;;;;;21.65;11.23;;;1.90;62.90;;;-3.22;92.87;96364.34;4987134;28;20025;-46
2023/01/23 04:14:44;;;;;;;23.08;11.93;;;1.90;63.00;;;-3.28;92.86;96375.41;4993733;28;20064;-48
2023/01/23 04:17:13;;;;;;;20.95;11.52;;;2.00;63.10;;;-3.31;92.31;96368.72;4977945;28;20053;-46
2023/01/23 04:19:39;;;;;;;19.00;10.85;;;2.00;63.10;;;-3.38;92.24;96359.91;5001195;28;20056;-49
2023/01/23 04:22:05;;;;;;;18.77;10.52;;;2.00;63.10;;;-3.42;91.58;96373.41;4993294;28;20048;-46
2023/01/23 04:24:37;;;;;;;21.33;11.07;;;2.00;63.00;;;-3.61;91.53;96371.88;4990824;28;20025;-47
2023/01/23 04:27:05;;;;;;;18.98;10.70;;;1.90;62.80;;;-3.59;91.39;96375.16;5010842;28;20044;-49
2023/01/23 04:29:32;;;;;;;19.85;10.32;;;1.90;62.70;;;-3.63;90.96;96372.03;4998999;28;20033;-49
2023/01/23 04:32:01;;;;;;;21.13;10.80;;;1.80;62.60;;;-3.76;91.41;96379.44;4997556;28;20051;-47
2023/01/23 04:34:30;;;;;;;19.95;10.35;;;1.80;62.50;;;-3.69;90.83;96374.47;5001357;28;20017;-47
2023/01/23 04:36:56;;;;;;;21.27;11.95;;;1.70;62.40;;;-3.88;91.19;96381.53;4993844;28;20629;-47
2023/01/23 04:39:24;;;;;;;20.77;11.52;;;1.70;62.40;;;-3.92;91.75;96380.19;5008284;28;20037;-48
2023/01/23 04:41:50;;;;;;;20.08;11.38;;;1.60;62.40;;;-3.91;91.36;96379.25;5011971;28;20032;-51
2023/01/23 04:44:19;;;;;;;20.98;11.68;;;1.50;62.40;;;-3.93;91.53;96388.97;4992218;28;20399;-49
2023/01/23 04:46:54;;;;;;;20.88;11.43;;;1.50;62.50;;;-3.98;91.93;96375.59;4992222;28;20076;-46
2023/01/23 04:49:24;;;;;;;19.30;9.98;;;1.50;62.60;;;-4.00;91.71;96380.16;4990313;28;20036;-48
2023/01/23 04:51:55;;;;;;;20.85;11.35;;;1.40;62.60;;;-4.03;92.38;96370.88;4992847;28;20028;-50
2023/01/23 04:54:21;;;;;;;20.15;11.15;;;1.40;62.70;;;-4.01;92.27;96371.53;4980716;28;20026;-51
2023/01/23 04:56:50;;;;;;;22.75;11.25;;;1.40;62.70;;;-4.06;91.95;96368.56;4982824;28;20416;-46
2023/01/23 04:59:16;;;;;;;22.17;12.00;;;1.40;62.80;;;-3.96;92.33;96371.06;4992566;28;20063;-52
2023/01/23 05:01:43;;;;;;;20.10;11.60;;;1.40;62.80;;;-3.94;92.29;96365.72;4992446;28;20087;-50
2023/01/23 05:04:09;;;;;;;21.50;11.20;;;1.40;62.80;;;-4.01;92.44;96366.34;4976874;28;20045;-47
2023/01/23 05:06:35;;;;;;;20.77;10.38;;;1.40;62.80;;;-3.98;92.24;96362.59;4977585;28;20633;-50
2023/01/23 05:09:06;;;;;;;19.13;10.23;;;1.40;62.80;;;-4.04;91.67;96369.25;4984282;28;20025;-50
2023/01/23 05:11:31;;;;;;;19.42;10.05;;;1.40;62.80;;;-4.02;91.33;96361.28;5002585;28;20052;-46
2023/01/23 05:13:57;;;;;;;19.45;11.13;;;1.40;62.80;;;-4.10;91.19;96356.03;5008810;28;20062;-47
2023/01/23 05:16:33;;;;;;;17.08;9.50;;;1.40;62.80;;;-4.20;90.94;96356.13;5004925;28;20033;-49
2023/01/23 05:18:58;;;;;;;19.95;10.75;;;1.40;62.70;;;-4.20;91.43;96356.97;4994767;28;20026;-46
2023/01/23 05:21:26;;;;;;;19.73;11.38;;;1.40;62.70;;;-4.25;91.56;96355.78;5012941;28;20090;-48
2023/01/23 05:23:52;;;;;;;20.48;10.70;;;1.40;62.70;;;-4.15;92.26;96361.69;4973745;28;20022;-46
2023/01/23 05:26:18;;;;;;;18.30;10.85;;;1.30;62.60;;;-4.14;91.70;96355.50;4985874;28;20504;-46
2023/01/23 05:28:50;;;;;;;18.42;10.65;;;1.30;62.70;;;-4.14;91.50;96360.72;4980453;28;20028;-46
2023/01/23 05:31:16;;;;;;;19.50;11.27;;;1.30;62.70;;;-4.14;91.04;96373.72;4993251;28;20034;-46
2023/01/23 05:33:50;;;;;;;18.75;10.50;;;1.30;62.60;;;-4.12;91.52;96374.38;5009333;28;20106;-48
2023/01/23 05:36:19;;;;;;;19.75;11.45;;;1.30;62.70;;;-4.11;91.49;96376.00;4997821;28;20108;-49
2023/01/23 05:38:45;;;;;;;18.60;10.68;;;1.30;62.70;;;-4.09;91.25;96365.47;5010045;28;20087;-46
2023/01/23 05:41:17;;;;;;;22.60;11.82;;;1.30;62.70;;;-4.13;91.15;96380.56;4993878;28;20032;-49
2023/01/23 05:43:43;;;;;;;21.35;11.38;;;1.30;62.70;;;-4.08;91.33;96388.72;5001623;28;20036;-49
2023/01/23 05:46:09;;;;;;;19.95;10.70;;;1.40;62.70;;;-4.12;91.32;96391.78;5000137;28;20432;-47
2023/01/23 05:48:35;;;;;;;16.45;10.15;;;1.40;62.70;;;-4.11;91.25;96396.03;5001043;28;20017;-47
2023/01/23 05:51:04;;;;;;;18.92;10.68;;;1.30;62.60;;;-4.24;90.48;96399.84;4987085;28;20021;-46
2023/01/23 05:53:33;;;;;;;18.90;10.45;;;1.30;62.60;;;-4.20;91.28;96397.75;4975994;28;20025;-47
2023/01/23 05:56:12;;;;;;;18.05;9.98;;;1.30;62.50;;;-4.11;90.71;96403.84;5007700;28;20029;-48
2023/01/23 05:58:37;;;;;;;19.67;11.40;;;1.30;62.60;;;-4.03;91.23;96402.09;5001146;28;20032;-50
2023/01/23 06:01:04;;;;;;;19.45;10.88;;;1.30;62.60;;;-4.03;91.04;96403.88;5015771;28;20028;-48
2023/01/23 06:03:33;;;;;;;19.13;10.48;;;1.40;62.70;;;-4.02;90.90;96408.13;5023121;28;20071;-50
2023/01/23 06:06:05;;;;;;;20.05;10.45;;;1.40;62.70;;;-3.97;91.37;96408.50;4966722;28;20372;-47
2023/01/23 06:08:34;;;;;;;21.23;11.38;;;1.40;62.70;;;-4.00;91.13;96416.59;4990293;28;20026;-48
2023/01/23 06:11:00;;;;;;;19.55;10.68;;;1.40;62.60;;;-3.99;91.14;96413.81;4981668;28;20030;-46
2023/01/23 06:13:28;;;;;;;20.95;11.35;;;1.40;62.70;;;-4.03;91.34;96412.50;4966620;28;20070;-52
2023/01/23 06:15:55;;;;;;;20.35;11.10;;;1.40;62.60;;;-4.05;91.44;96392.81;4983017;28;20060;-46
2023/01/23 06:18:22;;;;;;;19.65;10.48;;;1.40;62.50;;;-4.05;91.32;96403.22;4985266;28;20021;-46
2023/01/23 06:20:48;;;;;;;20.83;10.70;;;1.40;62.60;;;-4.07;90.82;96395.56;4966784;28;20052;-46
2023/01/23 06:23:14;;;;;;;17.15;9.77;;;1.40;62.60;;;-4.00;90.95;96399.19;4970500;28;20076;-46
2023/01/23 06:25:46;;;;;;;16.23;9.65;;;1.40;62.60;;;-3.99;90.68;96405.22;4955563;28;20033;-46
2023/01/23 06:28:13;;;;;;;18.42;10.50;;;1.40;62.50;;;-3.98;90.74;96412.88;4956994;28;20088;-47
2023/01/23 06:30:41;;;;;;;19.85;10.60;;;1.40;62.60;;;-3.92;90.93;96405.41;4964699;28;20022;-46
2023/01/23 06:33:07;;;;;;;16.98;9.50;;;1.50;62.60;;;-3.96;90.42;96413.53;4964907;28;20109;-47
2023/01/23 06:35:36;;;;;;;19.75;10.68;;;1.40;62.50;;;-3.95;90.41;96427.34;4954974;28;20176;-46
2023/01/23 06:38:04;;;;;;;18.05;9.55;;;1.50;62.60;;;-3.89;90.22;96423.31;4988971;28;20022;-46
2023/01/23 06:40:32;;;;;;;17.27;9.30;;;1.50;62.60;;;-3.97;89.49;96435.31;4972892;28;20431;-46
2023/01/23 06:42:58;;;;;;;19.92;9.40;;;1.50;62.60;;;-3.93;89.75;96430.63;4977015;28;20029;-45
2023/01/23 06:45:24;;;;;;;15.43;9.27;;;1.50;62.50;;;-3.90;90.05;96430.31;4979110;28;20030;-46
2023/01/23 06:47:56;;;;;;;15.18;8.95;;;1.50;62.50;;;-3.89;89.06;96428.53;4965479;28;20036;-51
2023/01/23 06:50:22;;;;;;;16.13;9.07;;;1.50;62.40;;;-3.89;88.70;96429.34;4959821;28;20033;-50
2023/01/23 06:52:48;;;;;;;19.55;10.13;;;1.50;62.40;;;-3.93;89.33;96422.81;4938503;28;20030;-49
2023/01/23 06:55:16;;;;;;;16.17;8.85;;;1.50;62.40;;;-3.93;89.76;96428.03;4960764;28;20017;-46
2023/01/23 06:57:51;;;;;;;17.65;9.93;;;1.50;62.40;;;-3.91;90.21;96428.69;4976581;28;20542;-45
2023/01/23 07:00:18;;;;;;;18.83;11.00;;;1.50;62.30;;;-3.89;90.16;96428.53;4977264;28;20061;-45
2023/01/23 07:02:44;;;;;;;18.50;9.98;;;1.50;62.30;;;-3.85;90.53;96429.88;4922693;28;21029;-50
2023/01/23 07:05:10;;;;;;;18.20;10.75;;;1.60;62.40;;;-3.85;90.84;96429.88;4937743;28;20069;-48
2023/01/23 07:07:36;;;;;;;22.15;11.75;;;1.50;62.30;;;-3.84;91.54;96427.09;4983092;28;20943;-47
2023/01/23 07:10:09;;;;;;;22.35;11.75;;;1.60;62.40;;;-3.82;91.40;96421.75;4987330;28;20368;-51
2023/01/23 07:12:36;;;;;;;20.30;11.32;;;1.60;62.40;;;-3.86;91.26;96416.00;4967402;28;20495;-54
2023/01/23 07:15:03;;;;;;;20.02;10.98;;;1.60;62.40;;;-3.84;91.37;96416.69;4978823;28;20025;-46
2023/01/23 07:17:28;;;;;;;21.83;11.18;;;1.60;62.40;;;-3.80;91.20;96412.78;4964624;28;20037;-47
2023/01/23 07:19:54;;;;;;;22.20;10.77;;;1.60;62.40;;;-3.78;90.73;96415.25;4968997;28;20026;-46
2023/01/23 07:22:22;;;;;;;20.05;11.60;;;1.60;62.40;;;-3.76;90.50;96421.94;4942737;28;20045;-49
2023/01/23 07:24:48;;;;;;;22.48;11.25;;;1.60;62.40;;;-3.72;89.97;96431.06;4975145;28;20018;-47
2023/01/23 07:27:15;;;;;;;18.75;10.50;;;1.70;62.40;;;-3.67;90.74;96433.22;4972865;28;20033;-48
2023/01/23 07:29:42;;;;;;;24.73;11.65;;;1.70;62.40;;;-3.68;90.49;96433.38;4974425;28;20029;-48
2023/01/23 07:32:08;;;;;;;20.77;11.82;;;1.70;62.40;;;-3.79;90.78;96429.22;4970634;28;20499;-47
2023/01/23 07:34:34;;;;;;;19.70;10.95;;;1.70;62.30;;;-3.70;90.68;96435.31;4969002;28;20028;-49
2023/01/23 07:37:00;;;;;;;22.13;12.13;;;1.70;62.30;;;-3.63;90.67;96444.97;4982710;28;20029;-49
2023/01/23 07:39:30;;;;;;;17.98;10.25;;;1.70;62.30;;;-3.70;90.10;96436.13;4979431;28;20017;-47
2023/01/23 07:41:56;;;;;;;19.92;10.75;;;1.80;62.40;;;-3.61;90.74;96444.78;4989665;28;20029;-50
2023/01/23 07:44:37;;;;;;;20.30;10.65;;;1.80;62.40;;;-3.66;90.11;96436.66;4984908;28;20376;-46
2023/01/23 07:47:05;;;;;;;20.92;10.93;;;1.80;62.30;;;-3.65;89.93;96441.69;4973593;28;20026;-46
2023/01/23 07:49:31;;;;;;;18.90;10.13;;;1.80;62.30;;;-3.57;89.85;96454.75;4977352;28;20024;-48
2023/01/23 07:51:59;;;;;;;19.50;11.07;;;1.90;62.30;;;-3.51;89.84;96453.31;4973915;28;20399;-49
2023/01/23 07:54:28;;;;;;;23.75;10.90;;;1.90;62.20;;;-3.46;89.62;96447.66;4986074;28;20021;-48
2023/01/23 07:56:53;;;;;;;20.70;10.70;;;2.00;62.20;;;-3.47;89.21;96451.22;4994237;28;20029;-46
2023/01/23 07:59:22;;;;;;;18.40;10.35;;;2.00;62.10;;;-3.45;89.30;96449.28;4946424;28;20444;-51
2023/01/23 08:01:50;;;;;;;17.77;10.40;;;2.00;62.00;;;-3.37;89.00;96452.72;4986452;28;20036;-50
2023/01/23 08:04:15;;;;;;;20.30;10.45;;;2.10;62.00;;;-3.31;89.00;96453.91;4983557;23;20053;-51
2023/01/23 08:06:41;;;;;;;18.38;10.07;;;2.10;62.00;;;-3.24;88.72;96454.91;4979669;28;20042;-43
2023/01/23 08:09:07;;;;;;;18.02;9.50;;;2.20;62.00;;;-3.31;88.71;96459.13;4987608;28;20025;-43
2023/01/23 08:11:39;;;;;;;16.45;10.07;;;2.20;61.80;;;-3.30;88.63;96460.75;5000452;28;20032;-44
2023/01/23 08:14:08;;;;;;;17.90;9.67;;;2.20;61.80;;;-3.40;88.41;96442.63;4987818;28;20026;-43
2023/01/23 08:16:34;;;;;;;16.17;9.35;;;2.20;61.60;;;-3.37;88.59;96449.31;4985938;28;20272;-43
2023/01/23 08:19:07;;;;;;;16.00;9.38;;;2.30;61.70;;;-3.36;88.28;96438.72;4984239;28;20037;-45
2023/01/23 08:21:33;;;;;;;14.52;9.00;;;2.20;61.60;;;-3.43;87.30;96432.50;4969736;28;20030;-43
2023/01/23 08:24:03;;;;;;;17.52;9.13;;;2.30;61.60;;;-3.33;88.21;96440.19;4971296;28;20053;-43
2023/01/23 08:26:35;;;;;;;16.02;9.32;;;2.30;61.50;;;-3.31;87.41;96435.66;4982633;28;20045;-48
2023/01/23 08:29:01;;;;;;;16.08;8.82;;;2.30;61.50;;;-3.26;88.01;96434.22;4960197;28;20466;-43
2023/01/23 08:31:27;;;;;;;15.02;8.05;;;2.30;61.50;;;-3.19;87.31;96442.22;4970252;28;20100;-43
2023/01/23 08:33:53;;;;;;;14.20;8.55;;;2.40;61.50;;;-3.24;87.40;96423.63;4970268;28;20464;-44
2023/01/23 08:36:19;;;;;;;13.02;7.75;;;2.40;61.40;;;-3.27;86.67;96427.34;4971512;28;20068;-48
2023/01/23 08:38:45;;;;;;;14.77;8.52;;;2.40;61.30;;;-3.28;86.50;96422.31;4984389;28;20073;-44
2023/01/23 08:41:17;;;;;;;15.23;8.30;;;2.50;61.20;;;-3.23;87.06;96411.41;4991632;28;20048;-43
2023/01/23 08:43:46;;;;;;;12.10;7.45;;;2.50;61.10;;;-3.18;87.18;96428.22;4991908;28;20487;-47
2023/01/23 08:46:15;;;;;;;16.38;8.30;;;2.50;61.10;;;-3.12;87.37;96426.75;4989584;28;20298;-47
2023/01/23 08:48:41;;;;;;;15.60;9.27;;;2.50;61.10;;;-3.16;87.53;96415.03;4991228;28;20050;-47
2023/01/23 08:51:12;;;;;;;15.90;9.20;;;2.50;61.00;;;-3.10;87.74;96427.44;4991125;28;20111;-42
2023/01/23 08:53:41;;;;;;;15.70;9.05;;;2.60;61.00;;;-2.97;87.66;96424.38;4991828;28;20037;-43
2023/01/23 08:56:21;;;;;;;13.55;8.10;;;2.70;61.00;;;-3.05;86.42;96412.94;4972494;28;20025;-44
2023/01/23 08:58:51;;;;;;;16.70;9.40;;;2.80;60.80;;;-3.00;87.28;96403.84;4990505;28;20028;-48
2023/01/23 09:01:24;;;;;;;15.40;8.95;;;2.80;60.70;;;-2.98;87.28;96413.09;4973164;28;20040;-44
2023/01/23 09:03:50;;;;;;;16.27;9.25;;;2.90;60.60;;;-3.02;87.63;96409.19;4973528;28;20075;-47
2023/01/23 09:06:20;;;;;;;13.88;8.45;;;2.90;60.50;;;-3.00;87.74;96417.69;4953579;28;20053;-43
2023/01/23 09:08:47;;;;;;;16.05;9.23;;;2.90;60.50;;;-2.97;87.56;96426.97;4960062;28;20063;-45
2023/01/23 09:11:14;;;;;;;17.48;9.82;;;2.90;60.50;;;-3.02;87.88;96419.63;4989202;28;20064;-44
2023/01/23 09:13:41;;;;;;;18.17;9.68;;;2.80;60.40;;;-2.98;88.37;96431.34;4972186;28;20029;-46
2023/01/23 09:16:19;;;;;;;17.20;10.10;;;2.80;60.50;;;-2.92;88.18;96429.91;4954761;28;20038;-47
2023/01/23 09:18:45;;;;;;;19.38;10.05;;;2.80;60.60;;;-2.95;88.55;96428.44;4987954;28;20432;-43
2023/01/23 09:21:16;;;;;;;20.45;10.77;;;2.80;60.60;;;-2.94;88.54;96430.06;4972498;28;20048;-43
2023/01/23 09:23:45;;;;;;;18.95;10.57;;;2.80;60.70;;;-2.96;89.08;96421.59;4954093;28;20028;-43
2023/01/23 09:26:15;;;;;;;17.52;10.48;;;2.90;60.60;;;-2.82;88.73;96417.53;4981952;28;20037;-44
2023/01/23 09:28:47;;;;;;;19.08;9.55;;;2.90;60.60;;;-2.82;88.48;96423.59;4991205;28;20358;-44
2023/01/23 09:31:15;;;;;;;20.33;11.32;;;3.00;60.60;;;-2.70;88.35;96429.28;4973622;28;20095;-43
2023/01/23 09:33:42;;;;;;;16.88;10.00;;;3.00;60.60;;;-2.62;88.32;96424.09;4956793;28;20029;-44
2023/01/23 09:36:12;;;;;;;19.55;11.02;;;3.10;60.60;;;-2.63;88.16;96437.31;4972757;28;20068;-47
2023/01/23 09:38:38;;;;;;;17.75;11.02;;;3.20;60.50;;;-2.73;87.70;96427.00;4988585;28;20061;-44
2023/01/23 09:41:22;;;;;;;19.08;10.68;;;3.20;60.50;;;-2.61;88.73;96425.72;4990224;28;20068;-43
2023/01/23 09:44:44;;;;;;;18.95;10.80;;;3.20;60.40;;;-2.64;88.15;96433.88;4957117;28;20380;-48
2023/01/23 09:47:43;;;;;;;18.67;10.73;;;3.20;60.40;;;-2.55;88.64;96421.66;4983176;28;20045;-43
2023/01/23 09:50:24;;;;;;;23.73;11.60;;;3.20;60.50;;;-2.62;88.64;96421.47;4961589;28;20022;-44
2023/01/23 09:53:15;;;;;;;18.05;10.13;;;3.10;60.40;;;-2.69;89.38;96424.91;4958705;28;20034;-54
2023/01/23 09:59:33;;;;;;;19.83;11.50;;;3.10;60.60;;;-2.44;89.20;96412.69;4991992;28;20040;-45
2023/01/23 10:02:21;;;;;;;18.52;10.02;;;3.00;60.70;;;-2.41;88.44;96405.34;4956256;28;21432;-43
2023/01/23 10:04:51;;;;;;;19.95;11.05;;;3.10;60.90;;;-2.37;88.64;96408.47;4949309;28;20053;-48
2023/01/23 10:07:43;;;;;;;20.42;11.27;;;3.20;60.90;;;-2.35;88.65;96409.09;4973160;28;20026;-48
2023/01/23 10:10:16;;;;;;;18.33;10.43;;;3.20;60.80;;;-2.36;88.85;96408.28;4987859;28;20033;-43
2023/01/23 10:12:53;;;;;;;20.33;11.45;;;3.20;60.80;;;-2.31;88.63;96409.59;4957052;28;20103;-43
2023/01/23 10:15:59;;;;;;;20.90;11.30;;;3.20;60.80;;;-2.27;88.30;96400.47;4966753;28;20022;-50
2023/01/23 10:18:56;;;;;;;20.10;10.75;;;3.30;60.80;;;-2.19;88.03;96397.84;4989674;28;20548;-45
2023/01/23 10:22:23;;;;;;;22.70;11.38;;;3.30;60.80;;;-2.22;88.41;96401.59;4976279;28;20036;-43
2023/01/23 10:24:57;;;;;;;22.42;11.15;;;3.40;60.80;;;-2.28;88.78;96388.41;4984086;28;20036;-47
2023/01/23 10:27:42;;;;;;;20.27;11.18;;;3.30;60.70;;;-2.21;89.26;96391.97;4952689;28;20506;-46
2023/01/23 10:30:33;;;;;;;21.48;11.50;;;3.40;60.70;;;-2.14;88.18;96383.28;4974397;28;20048;-44
2023/01/23 10:33:26;;;;;;;21.25;11.35;;;3.50;60.80;;;-2.19;89.29;96382.19;4974064;28;20033;-47
2023/01/23 10:37:06;;;;;;;21.00;11.25;;;3.50;60.70;;;-2.25;89.23;96372.41;4950311;28;20431;-47
2023/01/23 10:39:53;;;;;;;22.67;10.75;;;3.50;60.60;;;-2.07;89.24;96387.84;4963941;28;20041;-46
2023/01/23 10:42:24;;;;;;;25.50;12.40;;;3.50;60.70;;;-2.21;89.14;96373.69;4981921;28;20547;-43